AirNav   TITAN Aviation Fuels
 
 915 users online  

KDWA Yolo County Airport
Davis/Woodland/Winters, California, USA

GOING TO DAVIS/WOODLAND/WINTERS?


FAA INFORMATION EFFECTIVE 01 DECEMBER 2022

Location

FAA Identifier: DWA
Lat/Long: 38-34-45.8000N 121-51-25.0000W
38-34.763333N 121-51.416667W
38.5793889,-121.8569444
(estimated)
Elevation: 100 ft. / 30.5 m (surveyed)
Variation: 16E (2000)
From city: 6 miles NE of central business district of the associated city
(DSTC TO WINTERS.)
Time zone: UTC -8 (UTC -7 during Daylight Saving Time)
Zip code: 95616

Airport Operations

Airport use: Open to the public
Activation date: 04/1949
Control tower: no
ARTCC: OAKLAND CENTER
FSS: RANCHO MURIETA FLIGHT SERVICE STATION
NOTAMs facility: RIU (NOTAM-D service available)
Attendance: 0600-1800
Wind indicator: lighted
Segmented circle: yes
Lights: MIRL RY 16/34 PRESET LOW INTST; TO INCR INTST AND ACTVT PAPI RYS 16 & 34 - CTAF.
Beacon: white-green (lighted land airport)
Operates sunset to sunrise.

Airport Communications

CTAF/UNICOM: 123.0
WX AWOS-3P: 125.775 (530-750-2759)
TRAVIS APPROACH: 126.6
TRAVIS DEPARTURE: 126.6
WX AWOS-3 at EDU (4 nm SE): 119.025 (530-754-6839)
WX ASOS at VCB (13 nm S): 134.75 (707-448-1594)
WX ASOS at SMF (14 nm NE): PHONE 916-649-3996
WX ASOS at SAC (18 nm E): PHONE 916-421-0923

Nearby radio navigation aids

VOR radial/distance  VOR name  Freq  Var
SACr283/16.5SACRAMENTO VORTAC115.2017E
MCCr239/21.9MC CLELLAN VOR/DME109.2017E
ILAr147/30.6WILLIAMS VORTAC114.4018E
CCRr358/33.3CONCORD VOR/DME117.0017E
MYVr187/33.9MARYSVILLE VOR/DME110.8016E
SGDr028/34.1SCAGGS ISLAND VORTAC112.1017E

Airport Services

Fuel available: 100LL JET-A JET-A+
100LL:FUEL AVBL 24 HRS.
Parking: tiedowns
Airframe service: MAJOR
Powerplant service: MAJOR
Bottled oxygen: HIGH/LOW
Bulk oxygen: HIGH/LOW

Runway Information

Runway 16/34

Dimensions: 6000 x 100 ft. / 1829 x 30 m
Surface: asphalt, in good condition
Weight bearing capacity: 
Single wheel: 45.0
Double wheel: 60.0
Runway edge lights: medium intensity
RUNWAY 16  RUNWAY 34
Latitude: 38-35.257008N38-34.268512N
Longitude: 121-51.412417W121-51.421230W
Elevation: 98.2 ft.100.0 ft.
Traffic pattern: rightleft
Runway heading: 164 magnetic, 180 true344 magnetic, 000 true
Markings: nonprecision, in good conditionnonprecision, in good condition
Visual slope indicator: 2-light PAPI on left (3.00 degrees glide path)2-light PAPI on left (3.00 degrees glide path)
Runway end identifier lights: nono
Touchdown point: yes, no lightsyes, no lights
Obstructions: none110 ft. trees, 3500 ft. from runway, 30:1 slope to clear

Airport Ownership and Management from official FAA records

Ownership: Publicly-owned
Owner: YOLO COUNTY
120 WEST MAIN STREET, SUITE D
WOODLAND, CA 95695-2998
Phone 530-406-5005
Manager: GARY ENGEL
625 COURT ST RM 202, RM 202
WOODLAND, CA 95695-2598
Phone 530-406-5044

Airport Operational Statistics

Aircraft based on the field: 41
Single engine airplanes: 38
Helicopters: 1
Ultralights: 2
    
Aircraft operations: avg 166/day *
50% transient general aviation
50% local general aviation
<1% air taxi
<1% military
* for 12-month period ending 31 December 2018

Additional Remarks

NON-RADIO AIRCRAFT BASED AT KDWA.
95 FT AGL UNLIT WIND TURBINE 1000 FT WEST OF RY CNTRLN.
APT OPS: (530) 759-8766
FOR CD CTC OAKLAND ARTCC AT 510-745-3380.
NO TGL 2200L TO 0600L.
RY 34 CALM WIND RY.
NOISE ABATEMENT: NO TURNS TO CROSSWIND PRIOR TO ARPT BOUNDARY. STRAIGHT OUT DEP NO EAST TURNS ON COURSE PRIOR TO 2 MIS. AVOID OVERFLIGHT OF OFF-ARPT STRUCTURES.
UNLIT 40 FT POWER LINE & 120 FT TREES 500 FT WEST OF RY CNTRLN.
BIRDS ON AND INVOF ARPT.
PARACHUTE ACTIVITY EAST OF RY.
CROP DUSTER OPNS ON AND INVOF ARPT.

Instrument Procedures

NOTE: All procedures below are presented as PDF files. If you need a reader for these files, you should download the free Adobe Reader.

NOT FOR NAVIGATION. Please procure official charts for flight.
FAA instrument procedures published for use from 01 December 2022 at 0901Z to 29 December 2022 at 0900z.

 
IAPs - Instrument Approach Procedures
RNAV (GPS) RWY 16   download (228KB)
RNAV (GPS) RWY 34   download (232KB)
NOTE: Special Take-Off Minimums/Departure Procedures apply   download (211KB)

Other nearby airports with instrument procedures:

KEDU - University Airport (4 nm SE)
O41 - Watts-Woodland Airport (6 nm N)
KVCB - Nut Tree Airport (13 nm S)
KSMF - Sacramento International Airport (14 nm NE)
KSAC - Sacramento Executive Airport (18 nm E)
KSUU - Travis Air Force Base (19 nm S)
 
Loc | Ops | Rwys | IFR | FBO | Links
Com | Nav | Svcs | Stats | Notes

Sonoma Jet Center
 
Area around KDWA (Yolo County Airport)
 
Road maps at: MapQuest Bing Google
 
Aerial photo
WARNING: Photo may not be current or correct
Aerial photo of KDWA (Yolo County Airport)
Do you have a better or more recent aerial photo of Yolo County Airport that you would like to share? If so, please send us your photo.

 
Sectional chart

 
Airport diagram
CAUTION: Diagram may not be current
Diagram of KDWA (Yolo County Airport)
 
Airport distance calculator
Flying to Yolo County Airport? Find the distance to fly.

From to KDWA

Sunrise and sunset
Times for 03-Dec-2022
 Local
(UTC-8)
 Zulu
(UTC)
Morning civil twilight06:4014:40
Sunrise07:0915:09
Sunset16:4500:45
Evening civil twilight17:1501:15

Current date and time
Zulu (UTC)  03-Dec-2022 16:24:40
Local (UTC-8)  03-Dec-2022 08:24:40
 
METAR
KDWA 031555Z AUTO 33007KT 1 1/4SM -RA BR BKN017 OVC025 04/03 A3009 RMK AO2 P0001
KEDU 
4nm SE 
031555Z AUTO 35006KT 1 1/2SM BKN018 BKN023 OVC110 04/03 A3008 RMK AO1
KVCB 
13nm S 
031553Z AUTO 34010KT 4SM BR OVC017 04/03 A3008 RMK AO2 RAB1459E51 SLP185 P0001 T00440028
KSMF 
14nm NE 
031553Z 32006KT 2SM -RA BR SCT005 OVC024 04/03 A3008 RMK AO2 RAB34 SLP184 P0000 T00440028
KSAC 
17nm E 
031553Z 35004KT -RA OVC012 05/04 A3007 RMK AO2 RAB16 SLP182 P0001 T00500039
KSUU 
19nm S 
031555Z AUTO 01009KT 10SM -RA OVC017 04/01 A3005 RMK AO2 RAB19 CIG 014 RWY03R CIG 014 RWY21L CIG 014 RWY21R SLP183 P0000 T00440013 $
TAF
KSMF 
14nm NE 
031120Z 0312/0412 34004KT P6SM OVC040 FM031500 VRB06KT 6SM -SHRA OVC025 FM031800 VRB06KT 3SM -RA BR OVC015 FM040000 VRB04KT 2SM -RA OVC007
KSAC 
17nm E 
031120Z 0312/0412 VRB03KT P6SM OVC040 FM031500 VRB06KT 6SM -SHRA OVC025 FM031800 VRB06KT 3SM -RA BR OVC015 FM040000 VRB03KT 2SM -RA OVC007
KSUU 
19nm S 
031100Z 0311/0417 01008KT 9999 SCT200 QNH3004INS BECMG 0313/0314 01008KT 8000 -SHRA BKN010 OVC020 640809 QNH2999INS BECMG 0317/0318 01008KT 6000 SHRA BKN010 OVC020 WS015/36030KT 640809 QNH2998INS TEMPO 0318/0322 4000 SHRA BKN008 OVC010 BECMG 0321/0322 VRB06KT 6000 SHRA BKN010 OVC020 640809 QNH2998INS BECMG 0405/0406 27010KT 9999 NSW BKN020 OVC030 QNH3000INS TX08/0322Z TN02/0314Z
NOTAMs
Click for the latest NOTAMs
NOTAMs are issued by the DoD/FAA and will open in a separate window not controlled by AirNav.

 

 
 

FBO, Fuel Providers, and Aircraft Ground Support

  
 Business Name 
 
 Contact 
 
 Services / Description 
 
Fuel Prices
 
Comments
  
Davis Flight Support, LLC UNICOM 123.00
530-759-8766
[web site]
[email]
"Unexpected Luxury" is the quote routinely heard from flight crews and their guests when they arrive at Davis Flight Support.

From a stunning facility professionally designed and decorated to a responsive and reliable support team, you will enjoy personalized service along with some of the lowest Jet A prices in the Sacramento region.

Enjoy Ford Fusion, Toyota Venza & Prius courtesy cars, Contract Fuel, 6,000 ft runway, No landing fees, oversized Showers.

Also location of Woodland Aviation FAA Part 145 Repair Station.
More info and photos of Davis Flight Support, LLC
 
Avfuel Contract Fuel   Courtesy car   Enterprise Rent-A-Car  
 
Avfuel
100LL Jet A
FS $7.48 $7.33 
GUARANTEED
 
   3 read write
PreStar / SkyDance SkyDiving 530-753-2651
no information available

If you are affiliated with PreStar / SkyDance SkyDiving and would like to show here your services, contact info, web link, logo, and more, click here
100LL Jet A
FS --- $5.79 
SS $6.99 $5.79 
 Updated 18-Oct-2022
 
   write
FS=Full service
SS=Self service
Update Fuel Prices
 

Would you like to see your business listed on this page?

 If your business provides an interesting product or service to pilots, flight crews, aircraft, or users of the Yolo County Airport, you should consider listing it here.  To start the listing process, click on the button below
 
Add a business
 

Other Pages about Yolo County Airport

www.yolocounty.org/...
 
Update a link
 
Copyright © AirNav, LLC. All rights reserved. Privacy Policy  Contact